ADDS METAR Data INFO
IDs: Format: Raw Decoded Include TAF

Data at: 0858 UTC 19 Jun 2018

KSFQ 190835Z AUTO 00000KT 10SM CLR 25/23 A2989 RMK AO2 T02460232
KSFQ 190815Z AUTO 00000KT 10SM CLR 25/23 A2989 RMK AO2 T02480234
KSFQ 190755Z AUTO 24003KT 10SM CLR 25/24 A2989 RMK AO2 T02500237
KSFQ 190735Z AUTO 00000KT 7SM CLR 25/24 A2990 RMK AO2 T02480241
KSFQ 190715Z AUTO 00000KT 7SM SCT075 25/24 A2990 RMK AO2 T02460243
KSFQ 190655Z AUTO 00000KT 7SM SCT075 25/24 A2991 RMK AO2 T02500244
KSFQ 190635Z AUTO 23003KT 7SM CLR 25/24 A2991 RMK AO2 T02450244
KSFQ 190615Z AUTO 00000KT 7SM CLR 24/24 A2992 RMK AO2 T02420240
KSFQ 190555Z AUTO 00000KT 5SM BR CLR 24/24 A2992 RMK AO2 T02420241 10292 20241
KSFQ 190535Z AUTO 00000KT 7SM CLR 25/24 A2993 RMK AO2 T02450242
KSFQ 190515Z AUTO 00000KT 7SM CLR 24/24 A2993 RMK AO2 T02420240
KSFQ 190455Z AUTO 00000KT 7SM CLR 24/24 A2993 RMK AO2 T02420241 403260211
KSFQ 190435Z AUTO 00000KT 7SM CLR 24/24 A2994 RMK AO2 T02410240
KSFQ 190415Z AUTO 00000KT 7SM CLR 24/24 A2995 RMK AO2 T02440242
KSFQ 190355Z AUTO 00000KT 7SM CLR 25/24 A2995 RMK AO2 T02450242
KSFQ 190335Z AUTO 00000KT 7SM CLR 25/24 A2996 RMK AO2 T02510242
KSFQ 190315Z AUTO 00000KT 10SM CLR 26/24 A2996 RMK AO2 T02550242
KSFQ 190255Z AUTO 00000KT 10SM CLR 25/24 A2996 RMK AO2 T02530240
KSFQ 190235Z AUTO 00000KT 10SM CLR 26/24 A2995 RMK AO2 T02550240
KSFQ 190215Z AUTO 00000KT 10SM CLR 26/24 A2995 RMK AO2 T02570241
KSFQ 190155Z AUTO 00000KT 10SM CLR 26/25 A2995 RMK AO2 T02580245
KSFQ 190135Z AUTO 00000KT 10SM CLR 26/25 A2994 RMK AO2 T02640246
KSFQ 190115Z AUTO 00000KT 10SM CLR 27/25 A2995 RMK AO2 T02660245
KSFQ 190055Z AUTO 00000KT 10SM CLR 27/25 A2995 RMK AO2 T02700248
KSFQ 190035Z AUTO 00000KT 10SM CLR 28/25 A2994 RMK AO2 T02760248
KSFQ 190015Z AUTO 00000KT 10SM CLR 29/25 A2995 RMK AO2 T02850248
KSFQ 182355Z AUTO 14003KT 10SM CLR 29/25 A2995 RMK AO2 T02930246 10326 20293
KSFQ 182335Z AUTO 00000KT 10SM CLR 30/24 A2995 RMK AO2 T03030237
KSFQ 182315Z AUTO 00000KT 10SM CLR 31/23 A2996 RMK AO2 T03090231
KSFQ 182255Z AUTO 09004KT 10SM CLR 32/23 A2996 RMK AO2 T03160232
KSFQ 182235Z AUTO 10003KT 10SM CLR 32/23 A2997 RMK AO2 T03160232
KSFQ 182215Z AUTO 07004KT 10SM CLR 32/23 A2997 RMK AO2 T03180229
KSFQ 182155Z AUTO 02006KT 10SM CLR 32/23 A2997 RMK AO2 T03220231
KSFQ 182135Z AUTO 02005KT 10SM SCT039 32/23 A2997 RMK AO2 T03200232
KSFQ 182115Z AUTO 00000KT 10SM CLR 33/23 A2997 RMK AO2 T03250234
KSFQ 182055Z AUTO 00000KT 10SM CLR 32/23 A2998 RMK AO2 T03230229
KSFQ 182035Z AUTO 01005KT 10SM SCT080 32/23 A2999 RMK AO2 LTG DSNT E T03230231
KSFQ 182015Z AUTO 35005KT 10SM SCT050 SCT070 BKN080 32/23 A2999 RMK AO2 LTG DSNT E T03180234
KSFQ 181955Z AUTO 03004KT 10SM VCTS SCT041 SCT060 SCT095 32/24 A2999 RMK AO2 LTG DSNT E T03180236
KSFQ 181935Z AUTO 36007KT 10SM BKN040 BKN050 BKN100 33/23 A3000 RMK AO2 LTG DSNT E T03250231
KSFQ 181915Z AUTO 00000KT 10SM SCT040 SCT050 32/22 A3001 RMK AO2 T03170223
KSFQ 181855Z AUTO 32006KT 10SM CLR 32/23 A3001 RMK AO2 T03210229
KSFQ 181835Z AUTO 34004KT 10SM CLR 32/23 A3002 RMK AO2 T03200232
KSFQ 181815Z AUTO 36004KT 10SM SCT033 32/23 A3003 RMK AO2 T03190233
KSFQ 181755Z AUTO 00000KT 10SM SCT031 SCT110 31/23 A3003 RMK AO2 T03110234 10311 20235
KSFQ 181735Z AUTO 00000KT 10SM CLR 31/23 A3004 RMK AO2 T03080229
KSFQ 181715Z AUTO 04004KT 10SM SCT025 SCT030 SCT040 31/24 A3004 RMK AO2 T03070238
KSFQ 181655Z AUTO 00000KT 10SM SCT025 SCT040 BKN046 30/24 A3005 RMK AO2 T02980236
KSFQ 181635Z AUTO 01005KT 10SM BKN023 SCT028 BKN039 30/24 A3005 RMK AO2 LTG DSNT S T02970240
KSFQ 181615Z AUTO 01004KT 10SM SCT021 SCT026 30/24 A3005 RMK AO2 T02970242
KSFQ 181555Z AUTO 02004KT 10SM SCT019 29/24 A3006 RMK AO2 T02940242
KSFQ 181535Z AUTO 03006KT 10SM SCT017 29/24 A3006 RMK AO2 T02920242
KSFQ 181515Z AUTO 00000KT 10SM SCT017 29/24 A3006 RMK AO2 T02860240
KSFQ 181455Z AUTO 02004KT 10SM BKN015 29/24 A3006 RMK AO2 T02880244
KSFQ 181435Z AUTO 00000KT 10SM BKN015 29/24 A3006 RMK AO2 T02850242
KSFQ 181415Z AUTO 34004KT 10SM SCT017 28/24 A3006 RMK AO2 T02790239
KSFQ 181355Z AUTO 32003KT 10SM BKN015 28/24 A3005 RMK AO2 T02760237
KSFQ 181335Z AUTO 34003KT 10SM BKN013 27/24 A3006 RMK AO2 T02720238
KSFQ 181315Z AUTO 00000KT 10SM SCT009 27/24 A3006 RMK AO2 T02660238
KSFQ 181255Z AUTO 00000KT 10SM SCT006 26/24 A3006 RMK AO2 T02600237
KSFQ 181235Z AUTO 27003KT 10SM SCT006 26/24 A3006 RMK AO2 LTG DSNT S T02550240
KSFQ 181215Z AUTO 00000KT 7SM SCT075 25/24 A3007 RMK AO2 T02450239
KSFQ 181155Z AUTO 20003KT 4SM BR BKN075 23/23 A3007 RMK AO2 70011 T02330231 10233 20211
KSFQ 181135Z AUTO 19005KT 4SM BR CLR 23/23 A3008 RMK AO2 T02300227
KSFQ 181115Z AUTO 00000KT 5SM BR CLR 23/23 A3007 RMK AO2 T02270225
KSFQ 181055Z AUTO 00000KT 4SM BR CLR 22/22 A3007 RMK AO2 T02240222
KSFQ 181035Z AUTO 00000KT 5SM BR CLR 22/22 A3007 RMK AO2 LTG DSNT S T02210220
KSFQ 181015Z AUTO 00000KT 5SM BR CLR 22/22 A3006 RMK AO2 T02160215
KSFQ 180955Z AUTO 00000KT 5SM BR CLR 22/22 A3006 RMK AO2 T02170216
KSFQ 180935Z AUTO 00000KT 7SM SCT050 SCT060 22/21 A3005 RMK AO2 T02160214
KSFQ 180915Z AUTO 00000KT 10SM SCT060 OVC065 22/22 A3006 RMK AO2 T02220221
KSFQ 180855Z AUTO 00000KT 7SM BKN060 22/22 A3005 RMK AO2 T02170216
KSFQ 180835Z AUTO 00000KT 7SM CLR 21/21 A3005 RMK AO2 T02120211
KSFQ 180815Z AUTO 00000KT 5SM BR CLR 22/21 A3005 RMK AO2 T02150213
KSFQ 180755Z AUTO 00000KT 7SM CLR 22/21 A3004 RMK AO2 LTG DSNT S T02150213
KSFQ 180735Z AUTO 00000KT 7SM CLR 22/22 A3004 RMK AO2 T02180217
KSFQ 180715Z AUTO 00000KT 4SM BR CLR 22/22 A3004 RMK AO2 LTG DSNT S T02160215
KSFQ 180655Z AUTO 00000KT 5SM BR CLR 22/22 A3004 RMK AO2 LTG DSNT S T02210219
KSFQ 180635Z AUTO 00000KT 7SM CLR 22/22 A3005 RMK AO2 LTG DSNT S T02230222
KSFQ 180615Z AUTO 00000KT 7SM CLR 22/22 A3005 RMK AO2 LTG DSNT S AND SW T02220221
KSFQ 180555Z AUTO 00000KT 10SM CLR 22/22 A3005 RMK AO2 LTG DSNT S T02220221 10255 20220
KSFQ 180535Z AUTO 00000KT 7SM SCT095 22/22 A3006 RMK AO2 LTG DSNT S T02210221
KSFQ 180515Z AUTO 00000KT 10SM BKN095 22/22 A3006 RMK AO2 LTG DSNT S T02220222
KSFQ 180455Z AUTO 00000KT 7SM SCT055 BKN095 22/22 A3007 RMK AO2 LTG DSNT S T02210221 403310200
KSFQ 180435Z AUTO 00000KT 7SM SCT055 BKN085 22/22 A3007 RMK AO2 LTG DSNT S T02240223
KSFQ 180415Z AUTO 00000KT 10SM SCT085 22/22 A3007 RMK AO2 LTG DSNT S T02240224
KSFQ 180355Z AUTO 00000KT 10SM CLR 22/22 A3007 RMK AO2 LTG DSNT S T02230223
KSFQ 180335Z AUTO 00000KT 10SM CLR 22/22 A3007 RMK AO2 LTG DSNT S T02240224
KSFQ 180315Z AUTO 00000KT 10SM CLR 23/23 A3007 RMK AO2 LTG DSNT S T02260225
KSFQ 180255Z AUTO 00000KT 10SM CLR 23/23 A3007 RMK AO2 T02320225
KSFQ 180235Z AUTO 00000KT 10SM CLR 23/23 A3008 RMK AO2 T02310230
KSFQ 180215Z AUTO 00000KT 10SM CLR 23/23 A3007 RMK AO2 LTG DSNT SE T02320231
KSFQ 180155Z AUTO 00000KT 10SM CLR 24/23 A3006 RMK AO2 T02360232
KSFQ 180135Z AUTO 00000KT 10SM CLR 24/23 A3007 RMK AO2 T02360234
KSFQ 180115Z AUTO 00000KT 10SM VCTS CLR 24/23 A3006 RMK AO2 LTG DSNT SE AND S T02370228
KSFQ 180055Z AUTO 00000KT 10SM CLR 24/23 A3006 RMK AO2 LTG DSNT S T02410226
KSFQ 180035Z AUTO 19005KT 10SM CLR 25/23 A3006 RMK AO2 LTG DSNT SE AND S T02460231
KSFQ 180015Z AUTO 00000KT 10SM CLR 25/23 A3005 RMK AO2 LTG DSNT S T02520231
KSFQ 172355Z AUTO 00000KT 10SM VCTS SCT045 SCT090 SCT120 26/23 A3004 RMK AO2 LTG DSNT SE AND S 60011 T02550230 10331 20248
KSFQ 172335Z AUTO 18006KT 10SM VCTS SCT045 SCT060 BKN080 26/23 A3004 RMK AO2 LTG DSNT SE THRU SW T02580232
KSFQ 172315Z AUTO 16008KT 10SM VCTS SCT095 25/24 A3004 RMK AO2 LTG DSNT E THRU SW T02530235
KSFQ 172255Z AUTO 12010KT 10SM -TSRA SCT041 BKN050 OVC090 25/23 A3004 RMK AO2 LTG DSNT ALQS P0011 T02480233
KSFQ 172235Z AUTO 14010KT 5SM +TSRA SCT041 BKN047 OVC055 25/24 A3004 RMK AO2 LTG DSNT S AND SW P0010 T02510235
KSFQ 172215Z AUTO 09009KT 7SM -RA SCT022 SCT036 OVC045 26/24 A3003 RMK AO2 LTG DSNT SE AND SW P0005 T02560236
KSFQ 172155Z AUTO 09007KT 10SM TS OVC038 27/22 A3003 RMK AO2 LTG DSNT SE T02710222
KSFQ 172135Z AUTO 10014G18KT 10SM TS BKN038 BKN044 BKN065 28/23 A3002 RMK AO2 LTG DSNT SE AND SW T02750227
KSFQ 172115Z AUTO 05011G16KT 020V080 10SM SCT046 SCT060 SCT080 32/24 A3003 RMK AO2 T03150237